createdAt,value
2023-03-08T00:01:58.571Z,3.33
2023-03-08T00:04:27.968Z,3.37
2023-03-08T00:07:00.140Z,3.42
2023-03-08T00:09:29.394Z,3.45
2023-03-08T00:12:00.574Z,3.50
2023-03-08T00:14:32.172Z,3.54
2023-03-08T00:17:03.165Z,3.58
2023-03-08T00:19:32.623Z,3.62
2023-03-08T00:22:01.889Z,3.63
2023-03-08T00:24:31.497Z,3.61
2023-03-08T00:27:01.121Z,3.64
2023-03-08T00:29:32.132Z,3.66
2023-03-08T00:32:02.465Z,3.68
2023-03-08T00:34:32.305Z,3.68
2023-03-08T00:37:05.888Z,3.67
2023-03-08T00:39:36.075Z,3.70
2023-03-08T00:42:18.385Z,3.71
2023-03-08T00:44:54.502Z,3.72
2023-03-08T00:47:23.803Z,3.73
2023-03-08T00:49:53.022Z,3.77
2023-03-08T00:52:29.856Z,3.79
2023-03-08T00:54:59.673Z,3.79
2023-03-08T00:57:38.979Z,3.82
2023-03-08T01:00:11.900Z,3.83
2023-03-08T01:02:42.760Z,3.83
2023-03-08T01:05:11.852Z,3.85
2023-03-08T01:07:42.288Z,3.86
2023-03-08T01:10:12.787Z,3.86
2023-03-08T01:12:42.998Z,3.87
2023-03-08T01:15:12.379Z,3.88
2023-03-08T01:17:45.672Z,3.89
2023-03-08T01:20:14.811Z,3.92
2023-03-08T01:22:48.636Z,3.93
2023-03-08T01:25:20.875Z,3.95
2023-03-08T01:27:56.288Z,3.97
2023-03-08T01:30:28.346Z,4.02
2023-03-08T01:32:57.749Z,4.07
2023-03-08T01:35:29.904Z,4.12
2023-03-08T01:37:58.957Z,4.16
2023-03-08T01:40:28.054Z,4.15
2023-03-08T01:42:57.746Z,4.17
2023-03-08T01:46:05.345Z,4.20
2023-03-08T01:48:41.352Z,4.25
2023-03-08T01:51:19.438Z,4.30
2023-03-08T01:53:51.567Z,4.33
2023-03-08T01:56:22.184Z,4.38
2023-03-08T01:58:52.687Z,4.40
2023-03-08T02:01:22.629Z,4.39
2023-03-08T02:03:52.741Z,4.38
2023-03-08T02:06:23.649Z,4.33
2023-03-08T02:08:54.143Z,4.29
2023-03-08T02:11:25.247Z,4.28
2023-03-08T02:13:56.496Z,4.24
2023-03-08T02:16:26.689Z,4.19
2023-03-08T02:19:00.669Z,4.16
2023-03-08T02:21:32.860Z,4.12
2023-03-08T02:24:23.749Z,4.10
2023-03-08T02:27:01.346Z,4.07
2023-03-08T02:29:31.601Z,4.07
2023-03-08T02:32:02.998Z,4.06
2023-03-08T02:34:34.063Z,4.04
2023-03-08T02:37:03.613Z,4.03
2023-03-08T02:39:33.873Z,4.05
2023-03-08T02:42:04.018Z,4.08
2023-03-08T02:44:33.312Z,4.08
2023-03-08T02:47:02.766Z,4.12
2023-03-08T02:49:32.167Z,4.17
2023-03-08T02:52:01.729Z,4.22
2023-03-08T02:54:30.934Z,4.26
2023-03-08T02:57:02.799Z,4.28
2023-03-08T02:59:33.314Z,4.31
2023-03-08T03:02:03.461Z,4.36
2023-03-08T03:04:34.906Z,4.39
2023-03-08T03:07:06.622Z,4.42
2023-03-08T03:09:37.341Z,4.46
2023-03-08T03:12:07.865Z,4.49
2023-03-08T03:14:39.379Z,4.51
2023-03-08T03:17:09.377Z,4.51
2023-03-08T03:19:39.484Z,4.46
2023-03-08T03:22:08.741Z,4.43
2023-03-08T03:24:39.971Z,4.39
2023-03-08T03:27:09.802Z,4.35
2023-03-08T03:29:42.725Z,4.31
2023-03-08T03:32:14.966Z,4.26
2023-03-08T03:34:44.443Z,4.22
2023-03-08T03:37:14.825Z,4.18
2023-03-08T03:39:44.036Z,4.14
2023-03-08T03:42:16.523Z,4.09
2023-03-08T03:44:54.102Z,4.07
2023-03-08T03:47:24.595Z,4.04
2023-03-08T03:49:57.055Z,4.02
2023-03-08T03:52:27.868Z,3.99
2023-03-08T03:55:02.265Z,3.96
2023-03-08T03:57:32.513Z,3.95
2023-03-08T04:00:02.217Z,3.93
2023-03-08T04:02:44.007Z,3.90
2023-03-08T04:05:16.660Z,3.89
2023-03-08T04:07:56.866Z,3.89
2023-03-08T04:10:29.047Z,3.93
2023-03-08T04:13:00.296Z,3.95
2023-03-08T04:15:31.425Z,3.98
2023-03-08T04:18:02.220Z,4.00
2023-03-08T04:20:32.361Z,4.06
2023-03-08T04:23:07.213Z,4.11
2023-03-08T04:25:51.283Z,4.15
2023-03-08T04:28:24.748Z,4.17
2023-03-08T04:30:57.435Z,4.18
2023-03-08T04:33:38.166Z,4.18
2023-03-08T04:36:08.929Z,4.19
2023-03-08T04:38:40.872Z,4.18
2023-03-08T04:41:14.341Z,4.19
2023-03-08T04:44:04.787Z,4.23
2023-03-08T04:46:40.890Z,4.29
2023-03-08T04:49:11.610Z,4.34
2023-03-08T04:51:45.789Z,4.32
2023-03-08T04:54:16.528Z,4.30
2023-03-08T04:56:50.748Z,4.31
2023-03-08T04:59:22.067Z,4.29
2023-03-08T05:01:52.498Z,4.29
2023-03-08T05:04:24.027Z,4.29
2023-03-08T05:06:54.564Z,4.30
2023-03-08T05:09:27.526Z,4.31
2023-03-08T05:11:58.936Z,4.31
2023-03-08T05:14:35.883Z,4.34
2023-03-08T05:17:05.687Z,4.34
2023-03-08T05:19:37.410Z,4.29
2023-03-08T05:22:09.446Z,4.24
2023-03-08T05:24:46.612Z,4.21
2023-03-08T05:27:19.199Z,4.19
2023-03-08T05:29:48.479Z,4.13
2023-03-08T05:32:19.156Z,4.12
2023-03-08T05:34:48.277Z,4.14
2023-03-08T05:37:27.513Z,4.15
2023-03-08T05:39:59.940Z,4.12
2023-03-08T05:42:33.278Z,4.08
2023-03-08T05:45:03.095Z,4.13
2023-03-08T05:47:35.684Z,4.17
2023-03-08T05:50:06.164Z,4.21
2023-03-08T05:52:37.194Z,4.28
2023-03-08T05:55:07.398Z,4.35
2023-03-08T05:57:37.533Z,4.39
2023-03-08T06:00:09.369Z,4.44
2023-03-08T06:02:44.839Z,4.50
2023-03-08T06:05:17.244Z,4.56
2023-03-08T06:07:47.282Z,4.62
2023-03-08T06:10:18.402Z,4.67
2023-03-08T06:12:48.869Z,4.73
2023-03-08T06:15:22.321Z,4.76
2023-03-08T06:17:55.610Z,4.80
2023-03-08T06:20:29.112Z,4.85
2023-03-08T06:23:04.196Z,4.91
2023-03-08T06:25:36.097Z,4.94
2023-03-08T06:28:05.723Z,4.97
2023-03-08T06:30:42.744Z,5.00
2023-03-08T06:33:13.994Z,5.00
2023-03-08T06:35:56.454Z,4.97
2023-03-08T06:38:29.868Z,4.92
2023-03-08T06:41:00.548Z,4.90
2023-03-08T06:43:30.862Z,4.89
2023-03-08T06:46:05.338Z,4.90
2023-03-08T06:48:36.373Z,4.98
2023-03-08T06:51:06.600Z,5.06
2023-03-08T06:53:38.708Z,5.15
2023-03-08T06:56:14.952Z,5.23
2023-03-08T06:58:44.443Z,5.29
2023-03-08T07:01:14.764Z,5.37
2023-03-08T07:03:45.819Z,5.45
2023-03-08T07:06:15.897Z,5.50
2023-03-08T07:08:48.867Z,5.57
2023-03-08T07:11:18.308Z,5.61
2023-03-08T07:13:47.862Z,5.64
2023-03-08T07:16:17.485Z,5.66
2023-03-08T07:18:46.839Z,5.69
2023-03-08T07:21:18.165Z,5.73
2023-03-08T07:23:56.881Z,5.76
2023-03-08T07:26:36.697Z,5.79
2023-03-08T07:29:10.545Z,5.86
2023-03-08T07:31:45.785Z,5.90
2023-03-08T07:34:15.755Z,5.95
2023-03-08T07:36:51.479Z,6.02
2023-03-08T07:39:23.483Z,6.12
2023-03-08T07:41:55.970Z,6.22
2023-03-08T07:44:28.258Z,6.35
2023-03-08T07:46:57.468Z,6.50
2023-03-08T07:49:27.813Z,6.60
2023-03-08T07:51:57.972Z,6.68
2023-03-08T07:55:33.182Z,6.78
2023-03-08T07:58:09.478Z,7.03
2023-03-08T08:00:38.799Z,7.26
2023-03-08T08:03:08.856Z,7.51
2023-03-08T08:05:38.796Z,7.72
2023-03-08T08:08:09.601Z,7.91
2023-03-08T08:10:42.267Z,8.09
2023-03-08T08:13:12.548Z,8.27
2023-03-08T08:15:42.278Z,8.55
2023-03-08T08:18:11.473Z,8.80
2023-03-08T08:20:40.544Z,8.99
2023-03-08T08:23:10.267Z,9.16
2023-03-08T08:25:41.172Z,9.26
2023-03-08T08:28:10.338Z,9.35
2023-03-08T08:30:39.941Z,9.50
2023-03-08T08:33:09.627Z,9.65
2023-03-08T08:35:43.566Z,9.75
2023-03-08T08:38:15.641Z,9.81
2023-03-08T08:40:45.472Z,9.92
2023-03-08T08:43:15.171Z,10.09
2023-03-08T08:45:50.086Z,10.25
2023-03-08T08:48:19.905Z,10.39
2023-03-08T08:50:50.011Z,10.49
2023-03-08T08:53:21.022Z,10.61
2023-03-08T08:55:50.700Z,10.83
2023-03-08T08:58:21.630Z,11.08
2023-03-08T09:00:51.509Z,11.37
2023-03-08T09:03:21.172Z,11.68
2023-03-08T09:05:50.337Z,11.87
2023-03-08T09:08:19.671Z,12.09
2023-03-08T09:10:49.884Z,12.35
2023-03-08T09:13:19.326Z,12.51
2023-03-08T09:15:48.378Z,12.61
2023-03-08T09:18:17.705Z,12.66
2023-03-08T09:20:47.152Z,12.62
2023-03-08T09:23:16.671Z,12.49
2023-03-08T09:25:46.836Z,12.36
2023-03-08T09:28:51.608Z,12.20
2023-03-08T09:31:20.996Z,11.98
2023-03-08T09:33:52.399Z,11.86
2023-03-08T09:36:21.891Z,11.73
2023-03-08T09:38:52.747Z,11.67
2023-03-08T09:41:43.570Z,11.52
2023-03-08T09:44:35.435Z,11.37
2023-03-08T09:47:25.460Z,11.26
2023-03-08T09:50:03.442Z,11.20
2023-03-08T09:52:39.097Z,11.16
2023-03-08T09:55:32.052Z,11.18
2023-03-08T09:58:17.376Z,11.17
2023-03-08T10:00:47.917Z,11.17
2023-03-08T10:03:36.498Z,11.20
2023-03-08T10:06:35.382Z,11.26
2023-03-08T10:09:24.689Z,11.30
2023-03-08T10:12:13.423Z,11.35
2023-03-08T10:14:50.068Z,11.43
2023-03-08T10:17:34.508Z,11.50
2023-03-08T10:20:23.043Z,11.52
2023-03-08T10:23:02.312Z,11.47
2023-03-08T10:25:34.521Z,11.35
2023-03-08T10:28:12.015Z,11.20
2023-03-08T10:30:49.984Z,11.07
2023-03-08T10:33:24.811Z,10.96
2023-03-08T10:36:18.349Z,10.91
2023-03-08T10:39:04.551Z,10.88
2023-03-08T10:41:51.985Z,10.85
2023-03-08T10:44:40.968Z,10.79
2023-03-08T10:47:27.265Z,10.79
2023-03-08T10:50:13.695Z,10.78
2023-03-08T10:52:46.575Z,10.75
2023-03-08T10:55:20.695Z,10.74
2023-03-08T10:57:58.289Z,10.73
2023-03-08T11:00:41.218Z,10.72
2023-03-08T11:03:24.888Z,10.74
2023-03-08T11:06:01.513Z,10.72
2023-03-08T11:08:34.566Z,10.71
2023-03-08T11:11:05.863Z,10.70
2023-03-08T11:13:38.904Z,10.71
2023-03-08T11:16:32.717Z,10.73
2023-03-08T11:19:23.835Z,10.80
2023-03-08T11:22:09.723Z,10.92
2023-03-08T11:25:04.258Z,11.05
2023-03-08T11:28:08.829Z,11.27
2023-03-08T11:31:02.107Z,11.50
2023-03-08T11:33:43.221Z,11.75
2023-03-08T11:36:25.814Z,12.02
2023-03-08T11:39:26.732Z,12.22
2023-03-08T11:42:25.711Z,12.39
2023-03-08T11:45:22.498Z,12.54
2023-03-08T11:48:07.126Z,12.66
2023-03-08T11:51:24.923Z,12.82
2023-03-08T11:54:17.779Z,13.25
2023-03-08T11:56:53.380Z,13.67
2023-03-08T11:59:43.035Z,14.02
2023-03-08T12:02:30.888Z,14.14
2023-03-08T12:05:18.840Z,14.32
2023-03-08T12:08:43.342Z,14.47
2023-03-08T12:11:25.406Z,14.73
2023-03-08T12:14:07.026Z,14.95
2023-03-08T12:17:22.655Z,15.05
2023-03-08T12:19:53.924Z,15.10
2023-03-08T12:22:42.736Z,15.39
2023-03-08T12:25:26.266Z,15.81
2023-03-08T12:28:13.733Z,16.30
2023-03-08T12:31:24.841Z,16.42
2023-03-08T12:34:28.538Z,16.30
2023-03-08T12:37:22.456Z,16.11
2023-03-08T12:40:09.301Z,15.77
2023-03-08T12:42:42.058Z,15.39
2023-03-08T12:45:20.299Z,15.00
2023-03-08T12:48:18.055Z,14.70
2023-03-08T12:51:13.945Z,14.42
2023-03-08T12:53:57.314Z,14.39
2023-03-08T12:56:54.042Z,14.56
2023-03-08T12:59:31.970Z,14.57
2023-03-08T13:02:23.750Z,14.59
2023-03-08T13:05:33.176Z,14.65
2023-03-08T13:08:19.693Z,14.43
2023-03-08T13:11:30.740Z,14.19
2023-03-08T13:14:43.618Z,13.83
2023-03-08T13:17:50.506Z,13.54
2023-03-08T13:21:07.382Z,13.23
2023-03-08T13:24:15.738Z,13.04
2023-03-08T13:27:12.721Z,12.92
2023-03-08T13:29:47.250Z,12.89
2023-03-08T13:32:21.167Z,12.88
2023-03-08T13:35:04.324Z,12.89
2023-03-08T13:37:40.798Z,12.98
2023-03-08T13:40:26.270Z,13.15
2023-03-08T13:43:09.168Z,13.39
2023-03-08T13:45:55.086Z,13.56
2023-03-08T13:48:42.357Z,13.50
2023-03-08T13:51:19.740Z,13.30
2023-03-08T13:54:04.484Z,13.13
2023-03-08T13:56:40.178Z,12.90
2023-03-08T13:59:23.279Z,12.79
2023-03-08T14:02:11.935Z,12.69
2023-03-08T14:05:05.200Z,12.49
2023-03-08T14:07:58.993Z,12.42
2023-03-08T14:10:42.793Z,12.32
2023-03-08T14:13:29.657Z,12.30
2023-03-08T14:16:05.705Z,12.37
2023-03-08T14:18:43.854Z,12.45
2023-03-08T14:21:25.978Z,12.49
2023-03-08T14:23:59.494Z,12.55
2023-03-08T14:26:39.349Z,12.53
2023-03-08T14:29:37.838Z,12.44
2023-03-08T14:32:19.199Z,12.28
2023-03-08T14:34:58.706Z,12.22
2023-03-08T14:38:00.796Z,12.12
2023-03-08T14:40:32.206Z,12.07
2023-03-08T14:43:26.747Z,12.06
2023-03-08T14:46:04.493Z,12.03
2023-03-08T14:48:52.340Z,11.96
2023-03-08T14:51:53.536Z,11.93
2023-03-08T14:54:36.730Z,11.89
2023-03-08T14:57:30.458Z,11.87
2023-03-08T15:00:18.677Z,11.84
2023-03-08T15:02:52.840Z,11.83
2023-03-08T15:05:29.077Z,11.78
2023-03-08T15:08:03.578Z,11.74
2023-03-08T15:10:37.999Z,11.71
2023-03-08T15:13:17.690Z,11.66
2023-03-08T15:15:51.084Z,11.59
2023-03-08T15:18:21.426Z,11.54
2023-03-08T15:20:53.117Z,11.49
2023-03-08T15:23:26.784Z,11.46
2023-03-08T15:25:58.456Z,11.39
2023-03-08T15:28:27.631Z,11.33
2023-03-08T15:30:56.845Z,11.27
2023-03-08T15:33:29.187Z,11.20
2023-03-08T15:35:59.239Z,11.16
2023-03-08T15:38:29.222Z,11.12
2023-03-08T15:41:02.957Z,11.10
2023-03-08T15:43:47.770Z,11.07
2023-03-08T15:46:20.213Z,11.05
2023-03-08T15:48:51.532Z,10.94
2023-03-08T15:51:28.553Z,10.83
2023-03-08T15:54:02.431Z,10.69
2023-03-08T15:56:32.140Z,10.53
2023-03-08T15:59:02.660Z,10.39
2023-03-08T16:01:40.663Z,10.23
2023-03-08T16:04:12.602Z,10.04
2023-03-08T16:06:44.142Z,9.91
2023-03-08T16:09:18.117Z,9.80
2023-03-08T16:11:49.326Z,9.73
2023-03-08T16:14:19.115Z,9.68
2023-03-08T16:16:49.117Z,9.62
2023-03-08T16:19:18.462Z,9.58
2023-03-08T16:21:50.664Z,9.50
2023-03-08T16:24:20.338Z,9.48
2023-03-08T16:26:54.784Z,9.45
2023-03-08T16:29:26.990Z,9.43
2023-03-08T16:32:01.307Z,9.43
2023-03-08T16:34:30.847Z,9.45
2023-03-08T16:37:00.012Z,9.46
2023-03-08T16:39:30.373Z,9.47
2023-03-08T16:42:00.399Z,9.46
2023-03-08T16:44:35.623Z,9.42
2023-03-08T16:47:05.537Z,9.38
2023-03-08T16:49:37.012Z,9.30
2023-03-08T16:52:06.335Z,9.24
2023-03-08T16:54:36.494Z,9.16
2023-03-08T16:57:18.280Z,9.08
2023-03-08T16:59:53.994Z,8.99
2023-03-08T17:02:26.181Z,8.93
2023-03-08T17:05:02.681Z,8.84
2023-03-08T17:07:47.461Z,8.78
2023-03-08T17:10:29.558Z,8.70
2023-03-08T17:13:02.435Z,8.63
2023-03-08T17:15:43.119Z,8.59
2023-03-08T17:18:15.578Z,8.55
2023-03-08T17:20:49.011Z,8.47
2023-03-08T17:23:28.574Z,8.41
2023-03-08T17:26:09.486Z,8.37
2023-03-08T17:28:51.379Z,8.32
2023-03-08T17:31:29.091Z,8.28
2023-03-08T17:34:16.403Z,8.25
2023-03-08T17:36:57.107Z,8.24
2023-03-08T17:39:53.306Z,8.23
2023-03-08T17:45:31.610Z,8.20
2023-03-08T17:48:04.472Z,8.23
2023-03-08T17:50:35.064Z,8.25
2023-03-08T17:53:04.775Z,8.24
2023-03-08T17:55:34.158Z,8.25
2023-03-08T17:58:06.665Z,8.27
2023-03-08T18:00:36.436Z,8.27
2023-03-08T18:03:06.771Z,8.28
2023-03-08T18:05:36.679Z,8.29
2023-03-08T18:08:08.864Z,8.30
2023-03-08T18:10:39.038Z,8.28
2023-03-08T18:13:08.988Z,8.29
2023-03-08T18:15:38.614Z,8.31
2023-03-08T18:18:08.716Z,8.31
2023-03-08T18:20:37.983Z,8.33
2023-03-08T18:23:09.879Z,8.32
2023-03-08T18:25:39.204Z,8.35
2023-03-08T18:28:09.070Z,8.36
2023-03-08T18:30:39.880Z,8.37
2023-03-08T18:33:09.236Z,8.40
2023-03-08T18:35:38.489Z,8.42
2023-03-08T18:38:08.663Z,8.46
2023-03-08T18:40:37.991Z,8.48
2023-03-08T18:43:08.511Z,8.50
2023-03-08T18:45:37.715Z,8.51
2023-03-08T18:48:07.088Z,8.52
2023-03-08T18:51:02.216Z,8.52
2023-03-08T18:53:40.610Z,8.54
2023-03-08T18:56:11.838Z,8.54
2023-03-08T18:58:41.364Z,8.53
2023-03-08T19:01:31.961Z,8.55
2023-03-08T19:04:08.412Z,8.57
2023-03-08T19:06:41.593Z,8.59
2023-03-08T19:09:18.021Z,8.60
2023-03-08T19:12:12.430Z,8.60
2023-03-08T19:14:41.498Z,8.60
2023-03-08T19:17:11.235Z,8.59
2023-03-08T19:19:59.573Z,8.56
2023-03-08T19:22:28.943Z,8.55
2023-03-08T19:24:58.274Z,8.53
2023-03-08T19:27:29.541Z,8.51
2023-03-08T19:29:59.600Z,8.50
2023-03-08T19:32:30.816Z,8.48
2023-03-08T19:35:00.087Z,8.45
2023-03-08T19:37:33.697Z,8.42
2023-03-08T19:40:05.916Z,8.40
2023-03-08T19:42:36.753Z,8.38
2023-03-08T19:45:09.160Z,8.35
2023-03-08T19:47:39.588Z,8.31
2023-03-08T19:50:13.522Z,8.24
2023-03-08T19:52:42.838Z,8.13
2023-03-08T19:55:14.863Z,8.14
2023-03-08T19:57:46.583Z,8.12
2023-03-08T20:00:18.500Z,8.11
2023-03-08T20:02:49.285Z,8.14
2023-03-08T20:05:18.989Z,8.25
2023-03-08T20:07:49.803Z,8.32
2023-03-08T20:10:19.582Z,8.40
2023-03-08T20:12:52.969Z,8.48
2023-03-08T20:15:24.459Z,8.57
2023-03-08T20:17:56.195Z,8.67
2023-03-08T20:20:25.498Z,8.73
2023-03-08T20:22:56.327Z,8.78
2023-03-08T20:25:30.970Z,8.82
2023-03-08T20:28:01.076Z,8.86
2023-03-08T20:30:38.422Z,8.85
2023-03-08T20:33:12.955Z,8.81
2023-03-08T20:35:49.615Z,8.79
2023-03-08T20:38:22.308Z,8.80
2023-03-08T20:41:02.668Z,8.76
2023-03-08T20:43:37.108Z,8.75
2023-03-08T20:46:13.417Z,8.74
2023-03-08T20:48:57.609Z,8.69
2023-03-08T20:51:30.726Z,8.65
2023-03-08T20:54:01.809Z,8.61
2023-03-08T20:56:30.929Z,8.57
2023-03-08T20:59:01.577Z,8.56
2023-03-08T21:01:33.823Z,8.54
2023-03-08T21:04:03.461Z,8.52
2023-03-08T21:06:34.534Z,8.50
2023-03-08T21:09:04.767Z,8.51
2023-03-08T21:11:34.546Z,8.51
2023-03-08T21:14:04.227Z,8.52
2023-03-08T21:16:33.861Z,8.50
2023-03-08T21:19:04.835Z,8.48
2023-03-08T21:21:41.586Z,8.47
2023-03-08T21:24:15.282Z,8.46
2023-03-08T21:26:48.520Z,8.46
2023-03-08T21:29:22.732Z,8.46
2023-03-08T21:31:54.475Z,8.49
2023-03-08T21:34:23.803Z,8.51
2023-03-08T21:36:54.402Z,8.53
2023-03-08T21:39:26.952Z,8.55
2023-03-08T21:41:58.950Z,8.57
2023-03-08T21:44:31.585Z,8.59
2023-03-08T21:47:01.409Z,8.60
2023-03-08T21:49:32.570Z,8.58
2023-03-08T21:52:04.988Z,8.56
2023-03-08T21:54:34.382Z,8.54
2023-03-08T21:57:04.472Z,8.54
2023-03-08T21:59:33.510Z,8.54
2023-03-08T22:02:02.777Z,8.53
2023-03-08T22:04:34.213Z,8.56
2023-03-08T22:07:04.476Z,8.64
2023-03-08T22:09:35.415Z,8.69
2023-03-08T22:12:04.761Z,8.66
2023-03-08T22:14:34.781Z,8.61
2023-03-08T22:17:05.020Z,8.59
2023-03-08T22:19:35.835Z,8.57
2023-03-08T22:22:05.562Z,8.52
2023-03-08T22:24:35.479Z,8.49
2023-03-08T22:27:05.709Z,8.47
2023-03-08T22:29:35.014Z,8.45
2023-03-08T22:32:08.877Z,8.44
2023-03-08T22:34:38.133Z,8.43
2023-03-08T22:37:09.483Z,8.43
2023-03-08T22:39:39.661Z,8.39
2023-03-08T22:42:10.164Z,8.33
2023-03-08T22:44:40.745Z,8.31
2023-03-08T22:47:09.903Z,8.31
2023-03-08T22:49:39.836Z,8.27
2023-03-08T22:52:10.063Z,8.22
2023-03-08T22:54:39.188Z,8.15
2023-03-08T22:57:08.946Z,8.11
2023-03-08T22:59:39.111Z,8.07
2023-03-08T23:02:11.001Z,8.02
2023-03-08T23:04:42.303Z,7.98
2023-03-08T23:07:12.425Z,7.93
2023-03-08T23:09:41.725Z,7.88
2023-03-08T23:12:12.380Z,7.85
2023-03-08T23:14:45.363Z,7.84
2023-03-08T23:17:15.650Z,7.82
2023-03-08T23:19:45.491Z,7.82
2023-03-08T23:22:17.363Z,7.83
2023-03-08T23:24:49.618Z,7.84
2023-03-08T23:27:18.961Z,7.86
2023-03-08T23:29:53.362Z,7.89
2023-03-08T23:32:23.199Z,7.92
2023-03-08T23:34:52.349Z,7.95
2023-03-08T23:37:21.463Z,7.97
2023-03-08T23:39:50.682Z,7.99
2023-03-08T23:42:20.836Z,8.00
2023-03-08T23:44:52.840Z,8.01
2023-03-08T23:47:22.688Z,8.00
2023-03-08T23:49:52.176Z,7.98
2023-03-08T23:52:25.192Z,7.95
2023-03-08T23:54:54.942Z,7.91
2023-03-08T23:57:23.936Z,7.86
2023-03-08T23:59:54.477Z,7.82
